sensor_id;sensor_type;location;lat;lon;timestamp;P1;durP1;ratioP1;P2;durP2;ratioP2
46561;SDS011;32289;42.688;23.330;2023-02-15T00:00:17;26.75;;;11.90;;
46561;SDS011;32289;42.688;23.330;2023-02-15T00:03:58;23.23;;;11.82;;
46561;SDS011;32289;42.688;23.330;2023-02-15T00:07:39;21.98;;;11.07;;
46561;SDS011;32289;42.688;23.330;2023-02-15T00:11:20;27.08;;;13.60;;
46561;SDS011;32289;42.688;23.330;2023-02-15T00:15:19;23.35;;;10.73;;
46561;SDS011;32289;42.688;23.330;2023-02-15T00:19:00;26.88;;;12.85;;
46561;SDS011;32289;42.688;23.330;2023-02-15T00:22:41;20.42;;;11.73;;
46561;SDS011;32289;42.688;23.330;2023-02-15T00:26:22;31.83;;;12.32;;
46561;SDS011;32289;42.688;23.330;2023-02-15T00:30:04;23.27;;;10.32;;
46561;SDS011;32289;42.688;23.330;2023-02-15T00:33:45;21.83;;;11.40;;
46561;SDS011;32289;42.688;23.330;2023-02-15T00:37:26;22.17;;;8.93;;
46561;SDS011;32289;42.688;23.330;2023-02-15T00:41:07;28.65;;;12.57;;
46561;SDS011;32289;42.688;23.330;2023-02-15T00:44:49;19.67;;;10.32;;
46561;SDS011;32289;42.688;23.330;2023-02-15T00:48:30;22.75;;;11.80;;
46561;SDS011;32289;42.688;23.330;2023-02-15T00:52:11;26.55;;;11.10;;
46561;SDS011;32289;42.688;23.330;2023-02-15T00:55:52;25.10;;;11.63;;
46561;SDS011;32289;42.688;23.330;2023-02-15T00:59:33;18.90;;;10.20;;
46561;SDS011;32289;42.688;23.330;2023-02-15T01:03:15;21.90;;;9.98;;
46561;SDS011;32289;42.688;23.330;2023-02-15T01:06:57;25.75;;;12.15;;
46561;SDS011;32289;42.688;23.330;2023-02-15T01:10:38;23.13;;;10.10;;
46561;SDS011;32289;42.688;23.330;2023-02-15T01:14:18;30.90;;;13.18;;
46561;SDS011;32289;42.688;23.330;2023-02-15T01:17:59;20.08;;;9.45;;
46561;SDS011;32289;42.688;23.330;2023-02-15T01:21:40;31.83;;;10.43;;
46561;SDS011;32289;42.688;23.330;2023-02-15T01:25:21;21.67;;;10.00;;
46561;SDS011;32289;42.688;23.330;2023-02-15T01:29:03;21.50;;;10.02;;
46561;SDS011;32289;42.688;23.330;2023-02-15T01:32:43;20.85;;;8.60;;
46561;SDS011;32289;42.688;23.330;2023-02-15T01:36:24;18.05;;;9.30;;
46561;SDS011;32289;42.688;23.330;2023-02-15T01:40:06;20.27;;;10.60;;
46561;SDS011;32289;42.688;23.330;2023-02-15T01:43:50;23.83;;;10.32;;
46561;SDS011;32289;42.688;23.330;2023-02-15T01:47:38;26.85;;;10.30;;
46561;SDS011;32289;42.688;23.330;2023-02-15T01:51:23;19.65;;;9.27;;
46561;SDS011;32289;42.688;23.330;2023-02-15T01:55:07;22.48;;;11.68;;
46561;SDS011;32289;42.688;23.330;2023-02-15T01:58:49;17.40;;;9.18;;
46561;SDS011;32289;42.688;23.330;2023-02-15T02:02:33;20.60;;;9.70;;
46561;SDS011;32289;42.688;23.330;2023-02-15T02:06:14;20.88;;;9.60;;
46561;SDS011;32289;42.688;23.330;2023-02-15T02:09:55;21.77;;;9.63;;
46561;SDS011;32289;42.688;23.330;2023-02-15T02:13:35;30.27;;;10.48;;
46561;SDS011;32289;42.688;23.330;2023-02-15T02:29:38;21.35;;;10.20;;
46561;SDS011;32289;42.688;23.330;2023-02-15T02:34:01;19.92;;;10.25;;
46561;SDS011;32289;42.688;23.330;2023-02-15T02:46:00;26.00;;;10.18;;
46561;SDS011;32289;42.688;23.330;2023-02-15T02:49:43;18.23;;;8.27;;
46561;SDS011;32289;42.688;23.330;2023-02-15T02:53:24;21.67;;;10.23;;
46561;SDS011;32289;42.688;23.330;2023-02-15T02:57:08;21.40;;;10.15;;
46561;SDS011;32289;42.688;23.330;2023-02-15T03:00:51;17.20;;;7.97;;
46561;SDS011;32289;42.688;23.330;2023-02-15T03:04:36;19.98;;;8.50;;
46561;SDS011;32289;42.688;23.330;2023-02-15T03:08:20;21.70;;;9.43;;
46561;SDS011;32289;42.688;23.330;2023-02-15T03:12:04;20.15;;;9.73;;
46561;SDS011;32289;42.688;23.330;2023-02-15T03:15:45;23.10;;;9.60;;
46561;SDS011;32289;42.688;23.330;2023-02-15T03:19:46;19.83;;;9.07;;
46561;SDS011;32289;42.688;23.330;2023-02-15T03:23:30;21.40;;;8.75;;
46561;SDS011;32289;42.688;23.330;2023-02-15T03:27:16;17.77;;;9.63;;
46561;SDS011;32289;42.688;23.330;2023-02-15T03:31:01;19.35;;;9.85;;
46561;SDS011;32289;42.688;23.330;2023-02-15T03:34:45;15.43;;;9.00;;
46561;SDS011;32289;42.688;23.330;2023-02-15T03:38:29;18.67;;;9.88;;
46561;SDS011;32289;42.688;23.330;2023-02-15T03:42:25;19.38;;;9.60;;
46561;SDS011;32289;42.688;23.330;2023-02-15T03:50:16;19.55;;;7.68;;
46561;SDS011;32289;42.688;23.330;2023-02-15T03:58:23;20.48;;;9.35;;
46561;SDS011;32289;42.688;23.330;2023-02-15T04:02:23;17.85;;;8.95;;
46561;SDS011;32289;42.688;23.330;2023-02-15T04:06:07;20.98;;;9.00;;
46561;SDS011;32289;42.688;23.330;2023-02-15T04:09:48;24.05;;;11.35;;
46561;SDS011;32289;42.688;23.330;2023-02-15T04:13:47;17.00;;;7.60;;
46561;SDS011;32289;42.688;23.330;2023-02-15T04:17:28;21.10;;;9.68;;
46561;SDS011;32289;42.688;23.330;2023-02-15T04:21:09;17.27;;;8.52;;
46561;SDS011;32289;42.688;23.330;2023-02-15T04:25:08;22.58;;;9.25;;
46561;SDS011;32289;42.688;23.330;2023-02-15T04:28:54;21.92;;;9.20;;
46561;SDS011;32289;42.688;23.330;2023-02-15T04:32:37;17.27;;;9.35;;
46561;SDS011;32289;42.688;23.330;2023-02-15T04:36:18;20.08;;;9.50;;
46561;SDS011;32289;42.688;23.330;2023-02-15T04:39:59;23.38;;;10.02;;
46561;SDS011;32289;42.688;23.330;2023-02-15T04:43:39;25.15;;;11.70;;
46561;SDS011;32289;42.688;23.330;2023-02-15T04:47:20;21.52;;;10.60;;
46561;SDS011;32289;42.688;23.330;2023-02-15T04:51:05;23.98;;;10.02;;
46561;SDS011;32289;42.688;23.330;2023-02-15T04:54:46;18.83;;;8.57;;
46561;SDS011;32289;42.688;23.330;2023-02-15T04:58:27;21.20;;;9.80;;
46561;SDS011;32289;42.688;23.330;2023-02-15T05:02:08;20.60;;;9.18;;
46561;SDS011;32289;42.688;23.330;2023-02-15T05:05:49;22.33;;;9.93;;
46561;SDS011;32289;42.688;23.330;2023-02-15T05:09:29;20.38;;;8.57;;
46561;SDS011;32289;42.688;23.330;2023-02-15T05:13:10;19.20;;;8.93;;
46561;SDS011;32289;42.688;23.330;2023-02-15T05:16:50;22.67;;;10.23;;
46561;SDS011;32289;42.688;23.330;2023-02-15T05:20:31;20.40;;;9.20;;
46561;SDS011;32289;42.688;23.330;2023-02-15T05:24:12;22.10;;;9.95;;
46561;SDS011;32289;42.688;23.330;2023-02-15T05:28:11;25.85;;;10.57;;
46561;SDS011;32289;42.688;23.330;2023-02-15T05:32:00;18.00;;;8.13;;
46561;SDS011;32289;42.688;23.330;2023-02-15T05:35:42;22.75;;;10.45;;
46561;SDS011;32289;42.688;23.330;2023-02-15T05:39:23;21.33;;;9.57;;
46561;SDS011;32289;42.688;23.330;2023-02-15T05:43:03;20.27;;;9.43;;
46561;SDS011;32289;42.688;23.330;2023-02-15T05:46:44;21.70;;;9.48;;
46561;SDS011;32289;42.688;23.330;2023-02-15T05:50:25;23.58;;;11.43;;
46561;SDS011;32289;42.688;23.330;2023-02-15T05:54:06;24.85;;;10.63;;
46561;SDS011;32289;42.688;23.330;2023-02-15T05:57:47;20.17;;;10.38;;
46561;SDS011;32289;42.688;23.330;2023-02-15T06:01:28;19.42;;;9.73;;
46561;SDS011;32289;42.688;23.330;2023-02-15T06:05:09;21.52;;;10.13;;
46561;SDS011;32289;42.688;23.330;2023-02-15T06:08:50;20.98;;;8.80;;
46561;SDS011;32289;42.688;23.330;2023-02-15T06:12:30;20.35;;;9.18;;
46561;SDS011;32289;42.688;23.330;2023-02-15T06:16:11;18.65;;;9.35;;
46561;SDS011;32289;42.688;23.330;2023-02-15T06:19:52;19.83;;;8.68;;
46561;SDS011;32289;42.688;23.330;2023-02-15T06:23:33;33.65;;;11.05;;
46561;SDS011;32289;42.688;23.330;2023-02-15T06:27:13;22.33;;;8.73;;
46561;SDS011;32289;42.688;23.330;2023-02-15T06:30:54;17.27;;;7.65;;
46561;SDS011;32289;42.688;23.330;2023-02-15T06:34:36;26.90;;;11.27;;
46561;SDS011;32289;42.688;23.330;2023-02-15T06:38:17;20.45;;;9.88;;
46561;SDS011;32289;42.688;23.330;2023-02-15T06:41:57;19.85;;;9.55;;
46561;SDS011;32289;42.688;23.330;2023-02-15T06:45:38;19.75;;;8.80;;
46561;SDS011;32289;42.688;23.330;2023-02-15T06:49:19;17.83;;;7.82;;
46561;SDS011;32289;42.688;23.330;2023-02-15T06:53:00;20.02;;;8.88;;
46561;SDS011;32289;42.688;23.330;2023-02-15T06:56:41;22.55;;;10.45;;
46561;SDS011;32289;42.688;23.330;2023-02-15T07:00:23;16.98;;;8.23;;
46561;SDS011;32289;42.688;23.330;2023-02-15T07:04:04;30.98;;;9.95;;
46561;SDS011;32289;42.688;23.330;2023-02-15T07:07:45;16.08;;;8.95;;
46561;SDS011;32289;42.688;23.330;2023-02-15T07:11:26;17.15;;;8.65;;
46561;SDS011;32289;42.688;23.330;2023-02-15T07:19:06;16.90;;;8.05;;
46561;SDS011;32289;42.688;23.330;2023-02-15T07:22:47;24.15;;;9.57;;
46561;SDS011;32289;42.688;23.330;2023-02-15T07:26:30;22.63;;;9.70;;
46561;SDS011;32289;42.688;23.330;2023-02-15T07:30:13;20.95;;;8.57;;
46561;SDS011;32289;42.688;23.330;2023-02-15T07:33:57;19.38;;;7.80;;
46561;SDS011;32289;42.688;23.330;2023-02-15T07:37:40;23.02;;;9.82;;
46561;SDS011;32289;42.688;23.330;2023-02-15T07:41:21;16.42;;;7.60;;
46561;SDS011;32289;42.688;23.330;2023-02-15T07:49:04;22.08;;;8.55;;
46561;SDS011;32289;42.688;23.330;2023-02-15T07:52:45;16.10;;;7.97;;
46561;SDS011;32289;42.688;23.330;2023-02-15T07:56:26;19.65;;;7.80;;
46561;SDS011;32289;42.688;23.330;2023-02-15T08:04:03;18.73;;;8.13;;
46561;SDS011;32289;42.688;23.330;2023-02-15T08:07:45;19.20;;;8.23;;
46561;SDS011;32289;42.688;23.330;2023-02-15T08:11:27;15.02;;;6.85;;
46561;SDS011;32289;42.688;23.330;2023-02-15T08:15:12;18.30;;;8.70;;
46561;SDS011;32289;42.688;23.330;2023-02-15T08:18:53;17.17;;;6.25;;
46561;SDS011;32289;42.688;23.330;2023-02-15T08:22:35;19.42;;;8.45;;
46561;SDS011;32289;42.688;23.330;2023-02-15T08:26:16;17.05;;;7.40;;
46561;SDS011;32289;42.688;23.330;2023-02-15T08:29:57;16.58;;;7.43;;
46561;SDS011;32289;42.688;23.330;2023-02-15T08:33:38;15.35;;;6.57;;
46561;SDS011;32289;42.688;23.330;2023-02-15T08:37:21;18.20;;;8.45;;
46561;SDS011;32289;42.688;23.330;2023-02-15T08:41:08;16.77;;;7.80;;
46561;SDS011;32289;42.688;23.330;2023-02-15T08:44:58;21.05;;;8.63;;
46561;SDS011;32289;42.688;23.330;2023-02-15T08:48:39;27.35;;;8.40;;
46561;SDS011;32289;42.688;23.330;2023-02-15T08:52:23;18.75;;;8.13;;
46561;SDS011;32289;42.688;23.330;2023-02-15T08:56:04;18.95;;;9.23;;
46561;SDS011;32289;42.688;23.330;2023-02-15T08:59:45;13.98;;;6.75;;
46561;SDS011;32289;42.688;23.330;2023-02-15T09:03:26;20.13;;;8.55;;
46561;SDS011;32289;42.688;23.330;2023-02-15T09:07:07;17.80;;;8.40;;
46561;SDS011;32289;42.688;23.330;2023-02-15T09:10:49;14.90;;;7.55;;
46561;SDS011;32289;42.688;23.330;2023-02-15T09:18:14;21.13;;;8.57;;
46561;SDS011;32289;42.688;23.330;2023-02-15T09:21:57;19.77;;;8.70;;
46561;SDS011;32289;42.688;23.330;2023-02-15T09:25:38;20.83;;;8.70;;
46561;SDS011;32289;42.688;23.330;2023-02-15T09:29:19;21.10;;;7.70;;
46561;SDS011;32289;42.688;23.330;2023-02-15T09:32:59;13.00;;;6.88;;
46561;SDS011;32289;42.688;23.330;2023-02-15T09:36:40;20.73;;;7.78;;
46561;SDS011;32289;42.688;23.330;2023-02-15T09:40:21;13.95;;;7.85;;
46561;SDS011;32289;42.688;23.330;2023-02-15T10:27:32;18.13;;;8.68;;
46561;SDS011;32289;42.688;23.330;2023-02-15T10:35:22;18.67;;;8.38;;
46561;SDS011;32289;42.688;23.330;2023-02-15T10:43:14;20.73;;;9.13;;
46561;SDS011;32289;42.688;23.330;2023-02-15T10:51:05;19.15;;;9.77;;
46561;SDS011;32289;42.688;23.330;2023-02-15T11:10:26;16.13;;;8.05;;
46561;SDS011;32289;42.688;23.330;2023-02-15T11:14:22;22.48;;;9.90;;
46561;SDS011;32289;42.688;23.330;2023-02-15T11:18:36;18.50;;;9.55;;
46561;SDS011;32289;42.688;23.330;2023-02-15T11:22:21;17.05;;;8.45;;
46561;SDS011;32289;42.688;23.330;2023-02-15T11:26:04;20.23;;;10.77;;
46561;SDS011;32289;42.688;23.330;2023-02-15T11:33:35;17.60;;;10.48;;
46561;SDS011;32289;42.688;23.330;2023-02-15T11:37:20;21.63;;;9.50;;
46561;SDS011;32289;42.688;23.330;2023-02-15T11:41:19;19.02;;;10.38;;
46561;SDS011;32289;42.688;23.330;2023-02-15T11:45:10;15.32;;;8.60;;
46561;SDS011;32289;42.688;23.330;2023-02-15T11:49:23;16.08;;;9.82;;
46561;SDS011;32289;42.688;23.330;2023-02-15T11:53:18;18.00;;;10.57;;
46561;SDS011;32289;42.688;23.330;2023-02-15T12:05:01;18.98;;;9.93;;
46561;SDS011;32289;42.688;23.330;2023-02-15T12:08:50;18.92;;;9.35;;
46561;SDS011;32289;42.688;23.330;2023-02-15T12:12:35;16.02;;;9.18;;
46561;SDS011;32289;42.688;23.330;2023-02-15T12:16:16;16.83;;;10.15;;
46561;SDS011;32289;42.688;23.330;2023-02-15T12:19:57;18.80;;;10.30;;
46561;SDS011;32289;42.688;23.330;2023-02-15T12:27:28;20.70;;;10.40;;
46561;SDS011;32289;42.688;23.330;2023-02-15T12:35:14;16.77;;;9.30;;
46561;SDS011;32289;42.688;23.330;2023-02-15T12:39:20;18.70;;;9.98;;
46561;SDS011;32289;42.688;23.330;2023-02-15T12:43:03;18.58;;;10.43;;
46561;SDS011;32289;42.688;23.330;2023-02-15T12:46:56;18.45;;;9.60;;
46561;SDS011;32289;42.688;23.330;2023-02-15T12:50:50;18.63;;;10.13;;
46561;SDS011;32289;42.688;23.330;2023-02-15T12:54:32;21.35;;;10.50;;
46561;SDS011;32289;42.688;23.330;2023-02-15T12:58:17;17.52;;;9.05;;
46561;SDS011;32289;42.688;23.330;2023-02-15T13:02:03;19.70;;;9.95;;
46561;SDS011;32289;42.688;23.330;2023-02-15T13:05:56;19.77;;;9.75;;
46561;SDS011;32289;42.688;23.330;2023-02-15T13:09:38;19.38;;;8.88;;
46561;SDS011;32289;42.688;23.330;2023-02-15T13:13:21;14.98;;;7.70;;
46561;SDS011;32289;42.688;23.330;2023-02-15T13:17:09;17.27;;;8.27;;
46561;SDS011;32289;42.688;23.330;2023-02-15T13:20:51;19.92;;;8.52;;
46561;SDS011;32289;42.688;23.330;2023-02-15T13:24:36;16.25;;;8.32;;
46561;SDS011;32289;42.688;23.330;2023-02-15T13:28:22;17.98;;;7.65;;
46561;SDS011;32289;42.688;23.330;2023-02-15T13:32:19;19.80;;;9.05;;
46561;SDS011;32289;42.688;23.330;2023-02-15T13:36:08;23.55;;;9.50;;
46561;SDS011;32289;42.688;23.330;2023-02-15T13:44:29;17.30;;;7.70;;
46561;SDS011;32289;42.688;23.330;2023-02-15T14:00:12;15.27;;;7.72;;
46561;SDS011;32289;42.688;23.330;2023-02-15T14:12:05;16.83;;;8.20;;
46561;SDS011;32289;42.688;23.330;2023-02-15T14:20:36;18.67;;;9.10;;
46561;SDS011;32289;42.688;23.330;2023-02-15T14:24:45;27.60;;;9.27;;
46561;SDS011;32289;42.688;23.330;2023-02-15T14:28:36;25.38;;;10.27;;
46561;SDS011;32289;42.688;23.330;2023-02-15T14:32:38;17.00;;;7.53;;
46561;SDS011;32289;42.688;23.330;2023-02-15T14:36:22;17.05;;;8.88;;
46561;SDS011;32289;42.688;23.330;2023-02-15T14:40:12;14.40;;;7.97;;
46561;SDS011;32289;42.688;23.330;2023-02-15T14:48:28;17.65;;;8.52;;
46561;SDS011;32289;42.688;23.330;2023-02-15T14:52:11;22.35;;;9.18;;
46561;SDS011;32289;42.688;23.330;2023-02-15T14:56:04;23.88;;;10.20;;
46561;SDS011;32289;42.688;23.330;2023-02-15T14:59:57;19.95;;;9.27;;
46561;SDS011;32289;42.688;23.330;2023-02-15T15:03:45;16.60;;;7.90;;
46561;SDS011;32289;42.688;23.330;2023-02-15T15:15:15;17.85;;;9.57;;
46561;SDS011;32289;42.688;23.330;2023-02-15T15:19:11;15.38;;;8.75;;
46561;SDS011;32289;42.688;23.330;2023-02-15T15:35:37;18.08;;;8.93;;
46561;SDS011;32289;42.688;23.330;2023-02-15T15:51:52;19.17;;;8.93;;
46561;SDS011;32289;42.688;23.330;2023-02-15T15:55:33;17.15;;;8.70;;
46561;SDS011;32289;42.688;23.330;2023-02-15T15:59:18;19.15;;;9.07;;
46561;SDS011;32289;42.688;23.330;2023-02-15T16:03:13;20.75;;;9.05;;
46561;SDS011;32289;42.688;23.330;2023-02-15T16:10:56;19.05;;;9.50;;
46561;SDS011;32289;42.688;23.330;2023-02-15T16:14:39;23.08;;;9.70;;
46561;SDS011;32289;42.688;23.330;2023-02-15T16:18:22;22.63;;;10.80;;
46561;SDS011;32289;42.688;23.330;2023-02-15T16:22:09;19.98;;;9.25;;
46561;SDS011;32289;42.688;23.330;2023-02-15T16:29:36;22.88;;;10.10;;
46561;SDS011;32289;42.688;23.330;2023-02-15T16:33:17;18.95;;;8.88;;
46561;SDS011;32289;42.688;23.330;2023-02-15T16:37:16;19.77;;;10.55;;
46561;SDS011;32289;42.688;23.330;2023-02-15T16:40:57;17.58;;;9.50;;
46561;SDS011;32289;42.688;23.330;2023-02-15T16:44:41;27.50;;;10.25;;
46561;SDS011;32289;42.688;23.330;2023-02-15T16:48:23;20.30;;;9.63;;
46561;SDS011;32289;42.688;23.330;2023-02-15T16:52:06;22.70;;;10.65;;
46561;SDS011;32289;42.688;23.330;2023-02-15T16:55:58;19.25;;;10.07;;
46561;SDS011;32289;42.688;23.330;2023-02-15T16:59:41;26.70;;;10.50;;
46561;SDS011;32289;42.688;23.330;2023-02-15T17:03:27;22.42;;;10.95;;
46561;SDS011;32289;42.688;23.330;2023-02-15T17:07:18;24.48;;;10.32;;
46561;SDS011;32289;42.688;23.330;2023-02-15T17:14:57;28.52;;;12.13;;
46561;SDS011;32289;42.688;23.330;2023-02-15T17:18:39;28.25;;;12.25;;
46561;SDS011;32289;42.688;23.330;2023-02-15T17:22:25;23.90;;;11.10;;
46561;SDS011;32289;42.688;23.330;2023-02-15T17:26:11;31.63;;;14.20;;
46561;SDS011;32289;42.688;23.330;2023-02-15T17:29:59;18.88;;;11.10;;
46561;SDS011;32289;42.688;23.330;2023-02-15T17:33:44;26.70;;;11.50;;
46561;SDS011;32289;42.688;23.330;2023-02-15T17:41:26;20.90;;;11.32;;
46561;SDS011;32289;42.688;23.330;2023-02-15T17:45:08;20.02;;;8.70;;
46561;SDS011;32289;42.688;23.330;2023-02-15T17:48:52;21.98;;;10.70;;
46561;SDS011;32289;42.688;23.330;2023-02-15T17:52:35;25.00;;;12.02;;
46561;SDS011;32289;42.688;23.330;2023-02-15T17:56:16;28.80;;;13.55;;
46561;SDS011;32289;42.688;23.330;2023-02-15T17:59:57;27.00;;;10.95;;
46561;SDS011;32289;42.688;23.330;2023-02-15T18:03:56;17.02;;;9.73;;
46561;SDS011;32289;42.688;23.330;2023-02-15T18:07:55;23.33;;;10.23;;
46561;SDS011;32289;42.688;23.330;2023-02-15T18:11:56;21.00;;;10.13;;
46561;SDS011;32289;42.688;23.330;2023-02-15T18:15:37;23.20;;;9.13;;
46561;SDS011;32289;42.688;23.330;2023-02-15T18:19:19;23.80;;;11.10;;
46561;SDS011;32289;42.688;23.330;2023-02-15T18:23:02;25.85;;;11.57;;
46561;SDS011;32289;42.688;23.330;2023-02-15T18:26:42;25.45;;;11.75;;
46561;SDS011;32289;42.688;23.330;2023-02-15T18:30:24;22.15;;;9.70;;
46561;SDS011;32289;42.688;23.330;2023-02-15T18:34:05;27.58;;;10.70;;
46561;SDS011;32289;42.688;23.330;2023-02-15T18:37:54;27.60;;;10.93;;
46561;SDS011;32289;42.688;23.330;2023-02-15T18:41:35;19.30;;;9.48;;
46561;SDS011;32289;42.688;23.330;2023-02-15T18:45:26;18.85;;;10.65;;
46561;SDS011;32289;42.688;23.330;2023-02-15T18:49:11;18.23;;;9.98;;
46561;SDS011;32289;42.688;23.330;2023-02-15T18:52:52;26.02;;;10.05;;
46561;SDS011;32289;42.688;23.330;2023-02-15T18:56:32;24.48;;;11.38;;
46561;SDS011;32289;42.688;23.330;2023-02-15T19:00:15;19.05;;;8.77;;
46561;SDS011;32289;42.688;23.330;2023-02-15T19:03:57;19.25;;;8.05;;
46561;SDS011;32289;42.688;23.330;2023-02-15T19:07:38;25.50;;;9.85;;
46561;SDS011;32289;42.688;23.330;2023-02-15T19:11:21;19.30;;;9.40;;
46561;SDS011;32289;42.688;23.330;2023-02-15T19:15:04;19.17;;;9.75;;
46561;SDS011;32289;42.688;23.330;2023-02-15T19:18:45;25.83;;;12.48;;
46561;SDS011;32289;42.688;23.330;2023-02-15T19:22:27;19.05;;;9.77;;
46561;SDS011;32289;42.688;23.330;2023-02-15T19:26:09;18.05;;;9.38;;
46561;SDS011;32289;42.688;23.330;2023-02-15T19:29:50;23.42;;;11.30;;
46561;SDS011;32289;42.688;23.330;2023-02-15T19:33:31;20.10;;;10.52;;
46561;SDS011;32289;42.688;23.330;2023-02-15T19:37:17;23.75;;;9.60;;
46561;SDS011;32289;42.688;23.330;2023-02-15T19:41:06;24.60;;;10.32;;
46561;SDS011;32289;42.688;23.330;2023-02-15T19:44:49;21.17;;;9.48;;
46561;SDS011;32289;42.688;23.330;2023-02-15T19:48:30;20.52;;;10.00;;
46561;SDS011;32289;42.688;23.330;2023-02-15T19:52:13;18.60;;;9.07;;
46561;SDS011;32289;42.688;23.330;2023-02-15T19:55:57;21.55;;;8.75;;
46561;SDS011;32289;42.688;23.330;2023-02-15T19:59:38;15.90;;;7.88;;
46561;SDS011;32289;42.688;23.330;2023-02-15T20:03:19;18.83;;;9.00;;
46561;SDS011;32289;42.688;23.330;2023-02-15T20:07:00;15.90;;;8.27;;
46561;SDS011;32289;42.688;23.330;2023-02-15T20:10:43;22.80;;;9.80;;
46561;SDS011;32289;42.688;23.330;2023-02-15T20:14:24;22.48;;;9.27;;
46561;SDS011;32289;42.688;23.330;2023-02-15T20:18:05;19.05;;;8.23;;
46561;SDS011;32289;42.688;23.330;2023-02-15T20:21:46;16.85;;;9.13;;
46561;SDS011;32289;42.688;23.330;2023-02-15T20:25:33;24.50;;;10.10;;
46561;SDS011;32289;42.688;23.330;2023-02-15T20:29:15;17.17;;;9.13;;
46561;SDS011;32289;42.688;23.330;2023-02-15T20:32:57;18.70;;;9.00;;
46561;SDS011;32289;42.688;23.330;2023-02-15T20:36:38;33.17;;;14.80;;
46561;SDS011;32289;42.688;23.330;2023-02-15T20:40:21;25.48;;;13.60;;
46561;SDS011;32289;42.688;23.330;2023-02-15T20:44:18;29.40;;;13.88;;
46561;SDS011;32289;42.688;23.330;2023-02-15T20:48:01;29.13;;;14.95;;
46561;SDS011;32289;42.688;23.330;2023-02-15T20:51:42;36.90;;;16.52;;
46561;SDS011;32289;42.688;23.330;2023-02-15T20:55:29;32.58;;;15.52;;
46561;SDS011;32289;42.688;23.330;2023-02-15T20:59:22;48.92;;;18.40;;
46561;SDS011;32289;42.688;23.330;2023-02-15T21:03:06;40.97;;;16.50;;
46561;SDS011;32289;42.688;23.330;2023-02-15T21:06:51;45.25;;;19.35;;
46561;SDS011;32289;42.688;23.330;2023-02-15T21:10:31;40.20;;;18.02;;
46561;SDS011;32289;42.688;23.330;2023-02-15T21:14:17;42.85;;;17.75;;
46561;SDS011;32289;42.688;23.330;2023-02-15T21:18:01;46.50;;;16.83;;
46561;SDS011;32289;42.688;23.330;2023-02-15T21:21:44;37.85;;;17.90;;
46561;SDS011;32289;42.688;23.330;2023-02-15T21:25:26;32.90;;;15.00;;
46561;SDS011;32289;42.688;23.330;2023-02-15T21:29:18;36.55;;;17.33;;
46561;SDS011;32289;42.688;23.330;2023-02-15T21:36:41;32.60;;;15.25;;
46561;SDS011;32289;42.688;23.330;2023-02-15T21:40:27;36.72;;;18.48;;
46561;SDS011;32289;42.688;23.330;2023-02-15T21:44:17;40.17;;;13.65;;
46561;SDS011;32289;42.688;23.330;2023-02-15T21:48:19;30.95;;;15.38;;
46561;SDS011;32289;42.688;23.330;2023-02-15T21:52:01;34.22;;;15.52;;
46561;SDS011;32289;42.688;23.330;2023-02-15T21:55:54;31.08;;;15.73;;
46561;SDS011;32289;42.688;23.330;2023-02-15T21:59:36;36.60;;;14.60;;
46561;SDS011;32289;42.688;23.330;2023-02-15T22:03:17;46.95;;;18.98;;
46561;SDS011;32289;42.688;23.330;2023-02-15T22:06:57;34.63;;;15.18;;
46561;SDS011;32289;42.688;23.330;2023-02-15T22:10:38;35.63;;;15.55;;
46561;SDS011;32289;42.688;23.330;2023-02-15T22:14:32;30.27;;;14.27;;
46561;SDS011;32289;42.688;23.330;2023-02-15T22:18:19;31.77;;;14.02;;
46561;SDS011;32289;42.688;23.330;2023-02-15T22:22:10;35.17;;;16.70;;
46561;SDS011;32289;42.688;23.330;2023-02-15T22:25:52;29.38;;;14.57;;
46561;SDS011;32289;42.688;23.330;2023-02-15T22:29:36;33.78;;;15.45;;
46561;SDS011;32289;42.688;23.330;2023-02-15T22:33:21;40.38;;;14.48;;
46561;SDS011;32289;42.688;23.330;2023-02-15T22:37:04;30.17;;;14.63;;
46561;SDS011;32289;42.688;23.330;2023-02-15T22:40:45;41.70;;;15.32;;
46561;SDS011;32289;42.688;23.330;2023-02-15T22:44:28;35.13;;;16.60;;
46561;SDS011;32289;42.688;23.330;2023-02-15T22:48:12;24.02;;;12.18;;
46561;SDS011;32289;42.688;23.330;2023-02-15T22:51:56;35.15;;;14.40;;
46561;SDS011;32289;42.688;23.330;2023-02-15T22:55:37;32.13;;;15.13;;
46561;SDS011;32289;42.688;23.330;2023-02-15T22:59:25;35.08;;;15.02;;
46561;SDS011;32289;42.688;23.330;2023-02-15T23:03:15;36.53;;;17.00;;
46561;SDS011;32289;42.688;23.330;2023-02-15T23:06:58;33.53;;;14.65;;
46561;SDS011;32289;42.688;23.330;2023-02-15T23:10:40;34.60;;;16.27;;
46561;SDS011;32289;42.688;23.330;2023-02-15T23:22:17;40.10;;;15.48;;
46561;SDS011;32289;42.688;23.330;2023-02-15T23:25:59;27.95;;;14.15;;
46561;SDS011;32289;42.688;23.330;2023-02-15T23:29:41;30.65;;;14.20;;
46561;SDS011;32289;42.688;23.330;2023-02-15T23:33:23;34.08;;;15.13;;
46561;SDS011;32289;42.688;23.330;2023-02-15T23:37:09;32.50;;;15.32;;
46561;SDS011;32289;42.688;23.330;2023-02-15T23:41:00;31.35;;;15.18;;
46561;SDS011;32289;42.688;23.330;2023-02-15T23:45:00;30.10;;;13.98;;
46561;SDS011;32289;42.688;23.330;2023-02-15T23:48:41;29.15;;;14.52;;
46561;SDS011;32289;42.688;23.330;2023-02-15T23:52:22;35.28;;;14.05;;
46561;SDS011;32289;42.688;23.330;2023-02-15T23:56:03;36.45;;;15.50;;
46561;SDS011;32289;42.688;23.330;2023-02-15T23:59:44;27.50;;;14.90;;
